Time;durP1;ratioP1;P1;durP2;ratioP2;P2;SDS_P1;SDS_P2;PMS_P1;PMS_P2;Temp;Humidity;BMP_temperature;BMP_pressure;BME280_temperature;BME280_humidity;BME280_pressure;Samples;Min_cycle;Max_cycle;Signal;HPM_P1;HPM_P2
2023/01/02 19:24:46;;;;;;;;;7.00;6.25;;;;;11.95;62.99;101825.22;6234849;21;1320129;-73
2023/01/02 19:27:21;;;;;;;;;5.00;3.75;;;;;11.94;63.09;101820.88;6300398;22;45611;-72
2023/01/02 19:29:48;;;;;;;;;7.50;7.00;;;;;11.94;63.25;101825.28;6330838;22;46439;-73
2023/01/02 19:32:13;;;;;;;;;6.00;6.00;;;;;11.93;63.35;101832.31;6329509;22;45859;-74
2023/01/02 19:34:49;;;;;;;;;6.00;6.00;;;;;11.90;63.54;101831.66;6329785;22;45578;-73
2023/01/02 19:37:34;;;;;;;;;5.50;4.00;;;;;11.86;63.46;101831.00;6302325;22;45479;-78
2023/01/02 19:40:06;;;;;;;;;2.75;2.75;;;;;11.88;63.39;101830.88;6302063;22;48848;-75
2023/01/02 19:42:39;;;;;;;;;4.00;3.75;;;;;11.86;63.49;101838.03;6329272;22;46106;-78
2023/01/02 19:45:26;;;;;;;;;3.25;3.00;;;;;11.75;63.69;101828.97;6300202;22;46118;-77
2023/01/02 19:48:01;;;;;;;;;3.00;2.25;;;;;11.85;63.56;101842.44;6300991;22;45606;-78
2023/01/02 19:50:26;;;;;;;;;8.75;5.25;;;;;11.83;63.82;101857.41;6328705;22;47673;-76
2023/01/02 19:52:53;;;;;;;;;8.00;7.00;;;;;11.82;63.85;101844.38;6329899;22;46134;-75
2023/01/02 19:55:18;;;;;;;;;8.00;6.00;;;;;11.39;63.82;101781.09;6328880;22;45905;-76
2023/01/02 19:57:45;;;;;;;;;2.00;2.00;;;;;11.77;63.88;101842.84;6300760;22;45919;-77
2023/01/02 20:00:13;;;;;;;;;7.00;4.50;;;;;11.38;63.91;101787.31;6300874;22;47329;-77
2023/01/02 20:02:50;;;;;;;;;9.25;8.50;;;;;11.49;63.97;101803.31;6330241;22;46283;-76
2023/01/02 20:05:17;;;;;;;;;5.75;4.50;;;;;11.68;64.15;101822.34;6300562;22;45724;-76
2023/01/02 20:07:46;;;;;;;;;7.25;6.75;;;;;11.80;63.83;101846.25;6329034;22;45478;-76
2023/01/02 20:10:12;;;;;;;;;7.00;6.75;;;;;11.76;63.64;101835.06;6330135;22;45792;-76
2023/01/02 20:12:41;;;;;;;;;8.50;8.50;;;;;11.84;64.03;101845.97;6302013;22;46016;-77
2023/01/02 20:15:13;;;;;;;;;8.00;8.00;;;;;11.56;63.92;101804.66;6300652;22;45821;-75
2023/01/02 20:17:40;;;;;;;;;9.00;9.00;;;;;11.82;64.09;101832.09;6331026;22;45644;-77
2023/01/02 20:20:12;;;;;;;;;9.25;8.00;;;;;11.49;64.01;101776.22;6330196;22;45981;-76
2023/01/02 20:22:38;;;;;;;;;7.00;6.00;;;;;11.29;64.10;101751.06;6330172;22;46980;-77
2023/01/02 20:25:03;;;;;;;;;7.00;6.25;;;;;11.65;64.08;101792.78;6326591;22;46156;-77
2023/01/02 20:27:38;;;;;;;;;7.50;6.75;;;;;11.83;64.03;101832.94;6330071;22;45565;-78
2023/01/02 20:30:07;;;;;;;;;9.00;7.50;;;;;11.31;64.29;101749.22;6331042;22;45799;-78
2023/01/02 20:32:32;;;;;;;;;4.75;4.75;;;;;11.47;64.36;101780.69;6328215;22;46150;-78
2023/01/02 20:34:58;;;;;;;;;8.00;7.50;;;;;11.66;64.24;101803.19;6299377;22;45944;-76
2023/01/02 20:37:26;;;;;;;;;7.00;7.00;;;;;11.85;64.31;101833.69;6330461;22;45778;-75
2023/01/02 20:39:55;;;;;;;;;10.00;8.00;;;;;11.85;64.16;101844.19;6302102;22;45862;-76
2023/01/02 20:42:20;;;;;;;;;8.00;7.00;;;;;11.48;64.20;101788.50;6301711;22;47117;-75
2023/01/02 20:44:46;;;;;;;;;9.00;7.50;;;;;11.82;64.19;101833.88;6328635;22;45683;-76
2023/01/02 20:47:13;;;;;;;;;6.50;6.00;;;;;11.86;64.37;101835.41;6329338;22;45829;-75
2023/01/02 20:49:39;;;;;;;;;8.50;7.50;;;;;11.85;64.38;101839.81;6301369;22;47833;-75
2023/01/02 20:52:19;;;;;;;;;9.00;8.00;;;;;11.85;64.42;101847.69;6327886;22;46904;-76
2023/01/02 20:54:44;;;;;;;;;7.25;7.25;;;;;11.78;64.42;101831.41;6328856;22;45656;-77
2023/01/02 20:57:10;;;;;;;;;8.25;7.00;;;;;11.73;64.66;101833.47;6330363;22;45521;-76
2023/01/02 20:59:35;;;;;;;;;6.00;6.00;;;;;11.49;64.48;101800.69;6328745;22;46267;-75
2023/01/02 21:02:01;;;;;;;;;6.00;6.00;;;;;11.56;64.77;101817.75;6330014;22;45814;-77
2023/01/02 21:04:29;;;;;;;;;7.50;7.00;;;;;11.28;64.68;101779.09;6274908;22;45793;-76
2023/01/02 21:06:58;;;;;;;;;5.00;5.00;;;;;11.78;64.82;101867.31;6329896;22;45926;-75
2023/01/02 21:09:23;;;;;;;;;6.50;6.00;;;;;11.13;64.70;101772.06;6301012;22;47761;-76
2023/01/02 21:11:51;;;;;;;;;6.25;6.25;;;;;11.08;65.00;101744.41;6329810;22;46098;-76
2023/01/02 21:14:16;;;;;;;;;3.75;3.75;;;;;11.34;65.11;101799.75;6302186;22;45514;-77
2023/01/02 21:16:42;;;;;;;;;6.75;5.00;;;;;11.20;65.20;101777.81;6330063;22;45720;-76
2023/01/02 21:19:08;;;;;;;;;6.00;4.00;;;;;11.72;65.44;101865.00;6302315;22;45660;-75
2023/01/02 21:21:36;;;;;;;;;4.00;3.00;;;;;11.58;65.44;101847.41;6302333;22;47368;-76
2023/01/02 21:24:01;;;;;;;;;2.75;2.75;;;;;11.55;65.75;101852.81;6328240;22;45857;-76
2023/01/02 21:26:27;;;;;;;;;2.50;2.50;;;;;11.38;65.73;101826.69;6330843;22;45561;-76
2023/01/02 21:28:52;;;;;;;;;5.25;2.25;;;;;11.25;65.83;101817.75;6330787;22;46217;-77
2023/01/02 21:31:31;;;;;;;;;3.00;2.00;;;;;11.58;65.96;101873.66;6329691;22;46819;-77
2023/01/02 21:33:58;;;;;;;;;3.00;3.00;;;;;10.98;66.13;101777.28;6329508;22;45699;-76
2023/01/02 21:36:23;;;;;;;;;3.50;3.00;;;;;10.97;66.37;101778.22;6275897;22;45808;-78
2023/01/02 21:38:49;;;;;;;;;3.00;2.00;;;;;11.18;66.26;101819.03;6328660;22;47152;-76
2023/01/02 21:44:01;;;;;;;;;3.00;3.00;;;;;11.47;66.58;101865.53;6329354;22;45790;-76
2023/01/02 21:46:26;;;;;;;;;5.50;4.00;;;;;11.50;66.83;101873.22;6329714;22;45830;-77
2023/01/02 21:48:51;;;;;;;;;3.25;3.00;;;;;11.20;66.96;101830.28;6302125;22;47552;-78
2023/01/02 21:51:17;;;;;;;;;2.00;2.00;;;;;11.47;67.06;101873.41;6276187;22;47105;-78
2023/01/02 21:53:46;;;;;;;;;3.25;3.00;;;;;11.22;67.10;101826.66;6273909;22;45920;-78
2023/01/02 21:56:19;;;;;;;;;4.50;3.00;;;;;11.28;67.12;101849.09;6301912;22;45470;-79
2023/01/02 21:58:44;;;;;;;;;4.00;3.00;;;;;11.24;67.05;101843.16;6325941;22;46448;-79
2023/01/02 22:01:10;;;;;;;;;4.00;4.00;;;;;11.01;67.02;101806.84;6302007;22;47083;-76
2023/01/02 22:03:38;;;;;;;;;3.00;3.00;;;;;11.28;67.04;101849.09;6298600;22;45555;-77
2023/01/02 22:06:03;;;;;;;;;4.00;3.00;;;;;11.46;67.47;101874.31;6301559;22;45598;-74
2023/01/02 22:08:29;;;;;;;;;4.00;3.50;;;;;11.45;67.33;101877.88;6300711;22;46112;-79
2023/01/02 22:11:53;;;;;;;;;4.00;3.75;;;;;11.09;67.49;101822.16;6302317;22;47371;-75
2023/01/02 22:13:39;;;;;;;;;5.50;3.75;;;;;11.42;67.54;101887.69;6328919;22;45825;-75
2023/01/02 22:16:05;;;;;;;;;3.75;3.50;;;;;11.40;67.64;101886.91;6330630;22;45787;-78
2023/01/02 22:18:30;;;;;;;;;3.75;3.00;;;;;11.27;67.61;101868.38;6329703;22;46989;-76
2023/01/02 22:20:56;;;;;;;;;2.50;2.50;;;;;11.33;67.75;101878.56;6301795;22;47315;-77
2023/01/02 22:23:24;;;;;;;;;6.00;3.75;;;;;11.35;67.74;101895.88;6327248;22;46372;-79
2023/01/02 22:25:49;;;;;;;;;5.50;4.00;;;;;11.34;67.70;101888.94;6330430;22;45542;-77
2023/01/02 22:28:15;;;;;;;;;7.25;3.75;;;;;11.34;67.62;101888.09;6302335;22;46519;-79
2023/01/02 22:30:40;;;;;;;;;2.50;2.50;;;;;11.33;67.62;101889.06;6330536;22;46949;-77
2023/01/02 22:33:10;;;;;;;;;4.50;3.50;;;;;10.97;67.65;101828.88;6302205;22;45721;-75
2023/01/02 22:35:35;;;;;;;;;3.00;2.50;;;;;11.35;67.60;101893.25;6331924;22;45469;-75
2023/01/02 22:38:03;;;;;;;;;3.75;3.00;;;;;11.25;67.55;101884.19;6331455;22;45670;-78
2023/01/02 22:40:32;;;;;;;;;5.25;4.00;;;;;11.37;67.50;101898.44;6302773;22;47010;-75
2023/01/02 22:42:57;;;;;;;;;5.75;5.75;;;;;11.38;67.63;101901.91;6330787;22;45600;-77
2023/01/02 22:45:26;;;;;;;;;6.00;4.00;;;;;11.38;67.47;101905.38;6303622;22;45574;-80
2023/01/02 22:47:57;;;;;;;;;10.75;8.00;;;;;11.07;67.56;101850.22;6331073;22;45638;-77
2023/01/02 22:50:28;;;;;;;;;8.00;7.00;;;;;11.35;67.60;101901.13;6304488;22;46045;-77
2023/01/02 22:52:55;;;;;;;;;8.00;7.00;;;;;11.25;67.66;101875.47;6330228;22;45687;-76
2023/01/02 22:55:23;;;;;;;;;9.25;8.00;;;;;11.37;67.68;101901.06;6331552;22;45467;-77
2023/01/02 22:57:52;;;;;;;;;9.00;7.50;;;;;11.23;67.52;101888.66;6331664;22;46394;-77
2023/01/02 23:00:25;;;;;;;;;10.25;9.00;;;;;11.25;67.57;101883.34;6303294;22;47200;-76
2023/01/02 23:02:50;;;;;;;;;8.50;8.00;;;;;11.23;67.59;101887.81;6330373;22;45656;-79
2023/01/02 23:05:19;;;;;;;;;9.50;9.25;;;;;11.36;67.69;101910.72;6331031;22;45851;-79
2023/01/02 23:07:50;;;;;;;;;13.75;11.00;;;;;11.29;67.39;101905.88;6331338;22;46396;-79
2023/01/02 23:10:19;;;;;;;;;11.00;11.00;;;;;11.34;67.46;101916.97;6303051;22;47194;-76
2023/01/02 23:12:44;;;;;;;;;11.00;9.00;;;;;11.36;67.48;101925.59;6303773;22;45733;-76
2023/01/02 23:15:12;;;;;;;;;12.00;11.25;;;;;11.34;67.53;101927.44;6331351;22;45571;-74
2023/01/02 23:20:25;;;;;;;;;12.75;11.75;;;;;11.26;67.34;101913.91;6331696;22;46204;-77
2023/01/02 23:22:53;;;;;;;;;13.75;11.75;;;;;11.33;67.48;101923.16;6329806;22;45814;-78
2023/01/02 23:25:19;;;;;;;;;13.00;12.50;;;;;11.32;67.39;101924.06;6330630;22;46580;-76
2023/01/02 23:27:44;;;;;;;;;13.00;12.00;;;;;11.31;67.48;101919.75;6330665;22;46065;-75
2023/01/02 23:30:11;;;;;;;;;15.25;13.00;;;;;11.29;67.46;101914.59;6331667;22;45991;-76
2023/01/02 23:32:36;;;;;;;;;14.25;13.50;;;;;11.29;67.51;101921.59;6303305;22;46137;-76
2023/01/02 23:35:02;;;;;;;;;12.50;12.00;;;;;11.27;67.59;101910.34;6330438;22;46311;-76
2023/01/02 23:37:28;;;;;;;;;20.00;18.00;;;;;11.17;67.69;101902.13;6332038;22;45579;-76
2023/01/02 23:39:53;;;;;;;;;18.00;18.00;;;;;11.07;67.50;101894.81;6331683;22;45769;-76
2023/01/02 23:42:19;;;;;;;;;17.00;17.00;;;;;11.06;67.78;101896.59;6330947;22;45670;-75
2023/01/02 23:45:06;;;;;;;;;12.75;12.50;;;;;11.04;67.71;101892.34;6330039;22;45872;-76
2023/01/02 23:47:34;;;;;;;;;17.75;17.25;;;;;10.86;67.63;101873.19;6280434;22;47388;-78
2023/01/02 23:50:00;;;;;;;;;19.75;16.75;;;;;10.94;67.66;101895.47;6331560;22;46473;-75
2023/01/02 23:52:25;;;;;;;;;22.25;18.25;;;;;10.88;67.49;101894.94;6331047;22;45588;-77
2023/01/02 23:54:52;;;;;;;;;18.25;15.75;;;;;10.94;67.65;101905.09;6301391;22;45535;-76
2023/01/02 23:57:18;;;;;;;;;17.00;14.50;;;;;10.77;67.67;101879.75;6302504;22;48713;-77
2023/01/02 23:59:44;;;;;;;;;18.50;17.75;;;;;10.41;67.53;101837.94;6330642;22;46917;-78
